Flight Track Log - Related Links

Times and Time Zones

All times are in EDT time to prevent confusion due to time zone crossing. See the USC105 flight status page for this flight to view local times or setup timezone preferences in your user account.

Time Position Orientation Groundspeed Altitude Reporting Facility
EDT Latitude Longitude Course Direction KTS MPH feet Rate Location/Type
05:55AM 41.9000 -88.2167 142° Southeast 131 151 1,500  Level Chicago TRACON
05:56AM 41.8928 -88.2092 142° Southeast 130 150 1,900 1,146 Climbing Chicago Center
05:57AM 41.8839 -88.1667 106° East 121 139 3,200 1,150 Climbing Chicago Center
05:58AM 41.8872 -88.1167 85° East 130 150 4,200 1,113 Climbing Chicago Center
05:58AM 41.9000 -88.0833 63° Northeast 145 167 5,000 1,224 Climbing Chicago TRACON
05:59AM 41.9000 -88.0167 90° East 147 169 6,200 942 Climbing Chicago TRACON
06:00AM 41.9000 -87.9667 90° East 166 191 6,900 381 Climbing Chicago TRACON
06:01AM 41.9167 -87.8833 75° East 196 226 7,000 48 Climbing Chicago TRACON
06:02AM 41.9167 -87.8167 90° East 208 239 7,000  Level Chicago TRACON
06:03AM 41.9333 -87.7333 75° East 212 244 7,000  Level Chicago TRACON
06:04AM 41.9333 -87.6500 90° East 215 247 7,000  Level Chicago TRACON
06:05AM 41.9333 -87.5667 90° East 217 250 7,000  Level Chicago TRACON
06:06AM 41.9500 -87.4833 75° East 217 250 7,000  Level Chicago TRACON
06:09AM 41.9647 -87.3186 83° East 219 252 7,000  Level Chicago Center
06:10AM 41.9719 -87.2364 83° East 222 255 7,000  Level Chicago Center
06:11AM 41.9814 -87.1372 83° East 224 258 7,000  Level Chicago Center
06:12AM 41.9883 -87.0553 83° East 222 255 7,000  Level Chicago Center
06:13AM 41.9956 -86.9731 83° East 222 255 7,000  Level Chicago Center
06:14AM 42.0028 -86.8917 83° East 220 253 7,000  Level Chicago Center
06:15AM 42.0092 -86.8094 84° East 220 253 7,000  Level Chicago Center
06:16AM 42.0164 -86.7269 83° East 221 254 7,000  Level Chicago Center
06:17AM 42.0219 -86.6525 84° East 222 255 7,000 298 Level Chicago Center
06:18AM 42.0300 -86.5728 82° East 217 250 7,600 694 Climbing Chicago Center
06:19AM 42.0339 -86.5011 86° East 196 226 8,400 645 Climbing Chicago Center
06:20AM 42.0408 -86.4261 83° East 200 230 8,900 298 Climbing Chicago Center
06:21AM 42.0467 -86.3444 84° East 218 251 9,000 50 Climbing Chicago Center
06:22AM 42.0536 -86.2575 84° East 230 265 9,000  Level Chicago Center
06:23AM 42.0619 -86.1678 83° East 239 275 9,000  Level Chicago Center
06:24AM 42.0692 -86.0789 84° East 241 277 9,000  Level Chicago Center
06:25AM 42.0761 -85.9892 84° East 241 277 9,000  Level Chicago Center
06:26AM 42.0828 -85.9003 84° East 239 275 9,000  Level Chicago Center
06:27AM 42.0892 -85.8122 84° East 236 272 9,000  Level Chicago Center
06:28AM 42.0964 -85.7225 84° East 239 275 9,000  Level Chicago Center
06:29AM 42.1050 -85.6139 84° East 243 280 9,000  Level Chicago Center
06:30AM 42.1108 -85.5239 85° East 242 278 9,000  Level Chicago Center
06:31AM 42.1186 -85.4344 83° East 241 277 9,000  Level Chicago Center
06:32AM 42.1236 -85.3458 86° East 238 274 9,000  Level Chicago Center
06:33AM 42.1311 -85.2561 84° East 240 276 9,000  Level Chicago Center
06:34AM 42.1375 -85.1675 84° East 239 275 9,000  Level Chicago Center
06:35AM 42.1431 -85.0775 85° East 240 276 9,000  Level Chicago Center
06:36AM 42.1489 -84.9897 85° East 236 272 9,000  Level Chicago Center
06:37AM 42.1556 -84.9006 84° East 238 274 9,000  Level Chicago Center
06:38AM 42.1606 -84.8142 86° East 235 270 9,000  Level Chicago Center
06:39AM 42.1669 -84.7253 84° East 236 272 9,000  Level Chicago Center
06:40AM 42.1736 -84.6394 84° East 233 268 9,000 -132 Level Chicago Center
06:42AM 42.1847 -84.4583 85° East 237 273 8,600 -495 Descending Chicago Center
06:43AM 42.1911 -84.3633 85° East 250 288 7,500 -1,085 Descending Chicago Center
06:44AM 42.1953 -84.3139 83° East 241 277 6,900 -909 Descending Cleveland Center
06:45AM 42.1964 -84.2158 89° East 228 262 6,000 -803 Descending Cleveland Center
06:46AM 42.2053 -84.1350 82° East 227 261 5,200 -516 Descending Cleveland Center
06:47AM 42.2306 -84.0522 68° East 208 239 4,900 -142 Descending Cleveland Center
06:48AM 42.2617 -83.9867 57° Northeast 203 234 4,900 47 Level Cleveland Center
06:49AM 42.2953 -83.9153 58° Northeast 201 231 5,000 -90 Climbing Cleveland Center
06:50AM 42.3286 -83.8414 59° Northeast 222 255 4,700 -347 Descending Cleveland Center
06:51AM 42.3575 -83.7753 59° Northeast 208 239 4,300 -661 Descending Cleveland Center
06:52AM 42.3908 -83.7011 59° Northeast 197 227 3,300 -678 Descending Cleveland Center
06:53AM 42.4006 -83.6508 75° East 184 212 3,000 -142 Descending Cleveland Center
06:54AM 42.4072 -83.5556 85° East 183 211 3,000  Level Cleveland Center
06:55AM 42.4019 -83.5161 100° East 177 204 3,000 -367 Level Cleveland Center
06:56AM 42.3931 -83.4508 100° East 188 216 2,400 -295 Descending Cleveland Center
06:57AM 42.3608 -83.4044 133° Southeast 173 199 2,400  Level Cleveland Center
06:58AM 42.3169 -83.4167 192° South 138 159 2,400  Level Cleveland Center

Login

Don't have an account? Register now (free) for customized features, flight alerts, and more!